Telluride, CO

5:40 AM MDT on October 23, 2014 (GMT -0600)
Telluride Regional | Change Station
CLOSE
Current Station
Airport
Location: Telluride,
Elevation: 9078 ft
Nearby Weather Stations

Elev 9078 ft 37.95 °N, 107.91 °W | Updated 5 minutes ago

Clear
Clear
36 °F
Feels Like 31 °F
N
7
Wind Variable Wind from SE

Today
High -- | Low -- °F
--% Chance of Precip.
Yesterday
High -- | Low -- °F
Precip. -- in
7:27 AM 6:22 PM
Waning Crescent, 0% visible
Pressure 30.42 in
Visibility 10.0 miles
Clouds Clear
Windchill 31 °F
Dew Point 32 °F
Humidity 84%
Rainfall 0.00 in
Snow Depth 1 in , 1 in , 1 in
UV 0 out of 12
Pollen 1.40 out of 12
Air Quality Not available.
Flu Activity Sporadic
METAR KTEX 231135Z AUTO 13006KT 10SM CLR 03/00 A3042 RMK AO2 T00250000

More Conditions Fewer Conditions

Pressure 30.42 in
Visibility 10.0 miles
Clouds Clear
Windchill 31 °F
Dew Point 32 °F
Humidity 84%
Rainfall 0.00 in
Snow Depth 1 in , 1 in , 1 in
UV 0 out of 12
Pollen 1.40 out of 12
Air Quality Not available.
Flu Activity Sporadic
METAR KTEX 231135Z AUTO 13006KT 10SM CLR 03/00 A3042 RMK AO2 T00250000

More Conditions Fewer Conditions

10-Day Weather Forecast

Almanac

Astronomy

Oct. 23, 2014 Rise Set
Actual Time 7:27 AM MDT 6:22 PM MDT
Civil Twilight 7:00 AM MDT 6:49 PM MDT
Nautical Twilight 6:30 AM MDT 7:20 PM MDT
Astronomical Twilight 5:59 AM MDT 7:50 PM MDT
Moon 7:10 AM MDT 6:26 PM MDT
Length of Visible Light 11h 48m
Length of Day
10h 55m
Tomorrow will be 2m 15s shorter.
Waning Crescent, 0% of the Moon is Illuminated
Today
Waning Crescent
Oct 23
New
Oct 30
First Quarter
Nov 6
Full
Nov 14
Last Quarter

Today's Extremes

State Highs State Lows

Community

WunderPhotos

Upload Photos

1,764,209 photos uploaded!

Nearby

Snow Depth

Station Depth Elevation
Red Mountain Pass 1 in 11150 ft
Mineral Creek 0 in 10040 ft
Lizard Head Pass 1 in 10200 ft
El Diente Peak 1 in 10200 ft
Molas Lake 0 in 10500 ft

Earthquake Activity

City Distance Mag. Time & Date
No recent earthquake activity has been reported nearby.
Minimum magnitude displayed is 2.5.

Coastal Water Temperatures

Place Temperature
No Stations Reporting

Nearby Weather Stations